createdAt,value
2022-09-16T00:03:23.755Z,12.00
2022-09-16T00:07:20.823Z,12.10
2022-09-16T00:11:19.328Z,12.10
2022-09-16T00:15:16.959Z,12.10
2022-09-16T00:19:13.977Z,12.20
2022-09-16T00:23:10.985Z,12.20
2022-09-16T00:27:07.967Z,12.20
2022-09-16T00:31:05.328Z,12.20
2022-09-16T00:35:02.341Z,12.20
2022-09-16T00:38:59.297Z,12.20
2022-09-16T00:42:56.227Z,12.20
2022-09-16T00:46:55.264Z,12.20
2022-09-16T00:51:00.604Z,12.10
2022-09-16T00:55:00.853Z,12.00
2022-09-16T00:59:09.562Z,11.90
2022-09-16T01:03:06.985Z,11.90
2022-09-16T01:07:04.174Z,11.90
2022-09-16T01:11:01.233Z,11.90
2022-09-16T01:14:59.340Z,11.90
2022-09-16T01:19:49.449Z,11.80
2022-09-16T01:24:44.798Z,11.80
2022-09-16T01:29:32.591Z,11.80
2022-09-16T01:33:55.502Z,11.70
2022-09-16T01:38:16.798Z,11.70
2022-09-16T01:42:24.085Z,11.70
2022-09-16T01:46:32.827Z,11.70
2022-09-16T01:50:48.865Z,11.60
2022-09-16T01:55:01.437Z,11.60
2022-09-16T01:59:23.823Z,11.60
2022-09-16T02:03:30.334Z,11.50
2022-09-16T02:07:38.464Z,11.50
2022-09-16T02:11:38.277Z,11.50
2022-09-16T02:15:38.389Z,11.50
2022-09-16T02:19:48.065Z,11.60
2022-09-16T02:23:52.294Z,11.60
2022-09-16T02:27:52.218Z,11.60
2022-09-16T02:31:55.715Z,11.50
2022-09-16T02:35:55.920Z,11.60
2022-09-16T02:40:02.442Z,11.60
2022-09-16T02:43:59.616Z,11.60
2022-09-16T02:48:20.228Z,11.60
2022-09-16T02:52:35.083Z,11.60
2022-09-16T02:56:39.504Z,11.60
2022-09-16T03:00:46.424Z,11.60
2022-09-16T03:04:43.569Z,11.60
2022-09-16T03:08:42.235Z,11.60
2022-09-16T03:13:06.052Z,11.50
2022-09-16T03:17:39.926Z,11.60
2022-09-16T03:22:02.250Z,11.60
2022-09-16T03:26:16.778Z,11.50
2022-09-16T03:30:14.221Z,11.50
2022-09-16T03:34:40.509Z,11.60
2022-09-16T03:38:40.928Z,11.50
2022-09-16T03:42:44.020Z,11.50
2022-09-16T03:46:41.214Z,11.50
2022-09-16T03:50:38.646Z,11.50
2022-09-16T03:54:37.574Z,11.50
2022-09-16T03:58:34.843Z,11.50
2022-09-16T04:02:31.843Z,11.40
2022-09-16T04:06:28.894Z,11.30
2022-09-16T04:10:25.970Z,11.30
2022-09-16T04:14:22.922Z,11.30
2022-09-16T04:18:20.068Z,11.20
2022-09-16T04:22:17.304Z,11.10
2022-09-16T04:26:14.508Z,11.00
2022-09-16T04:30:12.711Z,11.00
2022-09-16T04:34:12.110Z,11.00
2022-09-16T04:38:09.153Z,11.00
2022-09-16T04:42:07.112Z,11.10
2022-09-16T04:46:05.426Z,11.10
2022-09-16T04:50:02.425Z,11.10
2022-09-16T04:54:01.546Z,11.10
2022-09-16T04:58:00.477Z,11.10
2022-09-16T05:01:57.655Z,11.10
2022-09-16T05:05:54.666Z,11.20
2022-09-16T05:09:51.626Z,11.20
2022-09-16T05:13:49.533Z,11.30
2022-09-16T05:17:51.373Z,11.30
2022-09-16T05:21:51.361Z,11.30
2022-09-16T05:25:48.308Z,11.30
2022-09-16T05:29:45.228Z,11.30
2022-09-16T05:33:45.579Z,11.30
2022-09-16T05:37:42.515Z,11.40
2022-09-16T05:41:39.842Z,11.50
2022-09-16T05:45:36.787Z,11.60
2022-09-16T05:49:33.816Z,11.70
2022-09-16T05:53:33.729Z,11.80
2022-09-16T05:57:30.644Z,11.80
2022-09-16T06:01:32.822Z,11.80
2022-09-16T06:05:30.610Z,11.90
2022-09-16T06:09:30.010Z,11.90
2022-09-16T06:13:27.082Z,11.90
2022-09-16T06:17:24.044Z,12.00
2022-09-16T06:21:22.181Z,12.10
2022-09-16T06:25:19.308Z,12.20
2022-09-16T06:29:17.667Z,12.20
2022-09-16T06:33:16.028Z,12.20
2022-09-16T06:37:14.542Z,12.30
2022-09-16T06:41:14.023Z,12.40
2022-09-16T06:45:11.507Z,12.60
2022-09-16T06:49:11.097Z,12.80
2022-09-16T06:53:08.291Z,13.00
2022-09-16T06:57:09.937Z,13.40
2022-09-16T07:01:22.261Z,13.80
2022-09-16T07:05:19.361Z,13.90
2022-09-16T07:09:16.560Z,13.90
2022-09-16T07:13:13.565Z,13.80
2022-09-16T07:17:10.609Z,13.50
2022-09-16T07:21:14.312Z,13.40
2022-09-16T07:25:11.279Z,13.30
2022-09-16T07:29:13.261Z,13.40
2022-09-16T07:33:10.199Z,13.60
2022-09-16T07:37:07.166Z,13.70
2022-09-16T07:41:09.383Z,13.90
2022-09-16T07:45:07.856Z,13.90
2022-09-16T07:49:08.616Z,13.90
2022-09-16T07:53:05.554Z,14.00
2022-09-16T07:57:03.265Z,14.10
2022-09-16T08:01:04.255Z,14.00
2022-09-16T08:05:01.959Z,14.00
2022-09-16T08:09:10.505Z,13.80
2022-09-16T08:13:18.143Z,13.80
2022-09-16T08:17:15.197Z,14.40
2022-09-16T08:21:19.971Z,14.90
2022-09-16T08:25:17.203Z,15.20
2022-09-16T08:29:14.337Z,15.30
2022-09-16T08:33:11.456Z,15.30
2022-09-16T08:37:09.056Z,15.40
2022-09-16T08:41:51.043Z,15.30
2022-09-16T08:46:09.697Z,15.60
2022-09-16T08:50:16.639Z,15.70
2022-09-16T08:54:54.649Z,15.80
2022-09-16T08:58:57.467Z,15.80
2022-09-16T09:03:15.188Z,15.50
2022-09-16T09:07:55.663Z,15.50
2022-09-16T09:12:06.402Z,15.50
2022-09-16T09:16:36.084Z,15.40
2022-09-16T09:21:19.231Z,15.50
2022-09-16T09:25:37.158Z,15.70
2022-09-16T09:30:03.290Z,15.40
2022-09-16T09:34:25.162Z,15.60
2022-09-16T09:39:27.015Z,15.70
2022-09-16T09:43:37.681Z,15.80
2022-09-16T09:47:43.137Z,15.80
2022-09-16T09:51:51.648Z,16.10
2022-09-16T09:55:57.557Z,16.10
2022-09-16T10:00:12.128Z,16.10
2022-09-16T10:04:16.169Z,16.00
2022-09-16T10:08:27.303Z,16.00
2022-09-16T10:12:33.810Z,15.80
2022-09-16T10:16:37.637Z,15.80
2022-09-16T10:20:42.692Z,16.10
2022-09-16T10:24:42.309Z,16.30
2022-09-16T10:28:42.435Z,16.40
2022-09-16T10:33:16.875Z,16.30
2022-09-16T10:37:13.735Z,16.20
2022-09-16T10:41:28.143Z,16.10
2022-09-16T10:45:29.969Z,16.50
2022-09-16T10:49:39.782Z,16.40
2022-09-16T10:53:45.777Z,16.40
2022-09-16T10:57:43.306Z,16.80
2022-09-16T11:02:24.872Z,16.70
2022-09-16T11:06:43.888Z,16.20
2022-09-16T11:11:03.305Z,15.80
2022-09-16T11:15:48.190Z,15.80
2022-09-16T11:19:57.004Z,15.90
2022-09-16T11:24:24.912Z,15.50
2022-09-16T11:29:09.574Z,15.20
2022-09-16T11:33:11.932Z,14.70
2022-09-16T11:37:44.329Z,14.40
2022-09-16T11:42:03.548Z,14.40
2022-09-16T11:46:13.720Z,14.20
2022-09-16T11:50:41.465Z,14.20
2022-09-16T11:54:59.910Z,14.10
2022-09-16T11:59:13.992Z,14.10
2022-09-16T12:03:45.699Z,14.00
2022-09-16T12:08:04.564Z,13.80
2022-09-16T12:12:26.742Z,13.70
2022-09-16T12:16:52.218Z,13.60
2022-09-16T12:21:03.029Z,13.60
2022-09-16T12:25:23.457Z,13.70
2022-09-16T12:29:31.664Z,13.70
2022-09-16T12:33:38.890Z,13.80
2022-09-16T12:37:47.614Z,13.70
2022-09-16T12:42:06.358Z,13.70
2022-09-16T12:46:33.989Z,13.80
2022-09-16T12:50:55.059Z,14.00
2022-09-16T12:55:43.243Z,14.20
2022-09-16T13:00:19.086Z,14.50
2022-09-16T13:04:37.706Z,14.70
2022-09-16T13:08:36.404Z,15.10
2022-09-16T13:12:41.522Z,15.60
2022-09-16T13:16:53.775Z,15.90
2022-09-16T13:21:07.469Z,17.10
2022-09-16T13:25:21.604Z,17.20
2022-09-16T13:29:38.326Z,17.30
2022-09-16T13:33:35.374Z,18.00
2022-09-16T13:37:32.337Z,18.50
2022-09-16T13:41:37.221Z,19.20
2022-09-16T13:45:45.006Z,18.90
2022-09-16T13:49:52.984Z,18.00
2022-09-16T13:53:53.400Z,18.20
2022-09-16T13:58:54.431Z,19.60
2022-09-16T14:03:12.776Z,20.20
2022-09-16T14:07:31.334Z,19.50
2022-09-16T14:11:58.735Z,18.80
2022-09-16T14:16:00.187Z,17.60
2022-09-16T14:20:01.176Z,16.80
2022-09-16T14:24:19.638Z,16.20
2022-09-16T14:28:25.286Z,15.90
2022-09-16T14:32:33.134Z,15.50
2022-09-16T14:36:40.579Z,15.00
2022-09-16T14:40:40.737Z,14.60
2022-09-16T14:44:48.626Z,14.30
2022-09-16T14:48:46.445Z,14.00
2022-09-16T14:53:04.584Z,14.00
2022-09-16T14:57:21.592Z,14.10
2022-09-16T15:01:28.387Z,14.10
2022-09-16T15:05:38.588Z,13.90
2022-09-16T15:09:57.756Z,13.90
2022-09-16T15:13:55.622Z,14.50
2022-09-16T15:18:05.579Z,14.60
2022-09-16T15:22:06.985Z,14.70
2022-09-16T15:26:16.122Z,14.40
2022-09-16T15:30:26.981Z,14.30
2022-09-16T15:34:24.808Z,14.30
2022-09-16T15:38:31.519Z,14.90
2022-09-16T15:42:28.503Z,15.80
2022-09-16T15:46:25.808Z,16.50
2022-09-16T15:50:27.038Z,17.00
2022-09-16T15:54:31.554Z,17.40
2022-09-16T15:58:32.212Z,17.80
2022-09-16T16:02:40.349Z,17.80
2022-09-16T16:06:52.936Z,17.90
2022-09-16T16:11:15.248Z,17.80
2022-09-16T16:15:16.007Z,17.60
2022-09-16T16:19:14.230Z,17.70
2022-09-16T16:23:13.047Z,17.60
2022-09-16T16:27:10.626Z,17.50
2022-09-16T16:31:18.814Z,17.30
2022-09-16T16:35:15.928Z,16.50
2022-09-16T16:39:12.877Z,15.70
2022-09-16T16:43:09.831Z,15.00
2022-09-16T16:47:08.676Z,14.50
2022-09-16T16:51:10.255Z,14.10
2022-09-16T16:55:07.972Z,13.80
2022-09-16T16:59:04.892Z,13.50
2022-09-16T17:03:01.952Z,13.50
2022-09-16T17:07:24.079Z,13.40
2022-09-16T17:11:21.581Z,13.40
2022-09-16T17:15:18.547Z,13.30
2022-09-16T17:19:18.394Z,13.30
2022-09-16T17:23:15.366Z,13.10
2022-09-16T17:27:14.578Z,12.90
2022-09-16T17:31:27.967Z,12.70
2022-09-16T17:35:25.020Z,12.30
2022-09-16T17:39:22.803Z,12.00
2022-09-16T17:43:19.790Z,11.70
2022-09-16T17:47:16.736Z,11.50
2022-09-16T17:51:13.852Z,11.30
2022-09-16T17:55:12.001Z,11.10
2022-09-16T17:59:11.121Z,11.10
2022-09-16T18:03:10.798Z,11.00
2022-09-16T18:07:07.817Z,10.90
2022-09-16T18:11:06.003Z,10.80
2022-09-16T18:15:03.099Z,10.70
2022-09-16T18:19:02.434Z,10.60
2022-09-16T18:22:59.410Z,10.40
2022-09-16T18:26:56.459Z,10.30
2022-09-16T18:31:11.317Z,10.20
2022-09-16T18:35:08.978Z,10.10
2022-09-16T18:39:07.860Z,10.00
2022-09-16T18:43:04.858Z,9.90
2022-09-16T18:47:01.804Z,9.80
2022-09-16T18:50:58.793Z,9.70
2022-09-16T18:54:55.724Z,9.60
2022-09-16T18:59:19.902Z,9.50
2022-09-16T19:03:11.315Z,9.40
2022-09-16T19:07:12.966Z,9.40
2022-09-16T19:11:10.164Z,9.30
2022-09-16T19:15:08.097Z,9.30
2022-09-16T19:19:05.722Z,9.30
2022-09-16T19:23:02.699Z,9.30
2022-09-16T19:26:59.703Z,9.30
2022-09-16T19:31:07.233Z,9.20
2022-09-16T19:35:04.712Z,9.10
2022-09-16T19:39:04.020Z,9.10
2022-09-16T19:43:00.939Z,9.00
2022-09-16T19:46:58.253Z,9.00
2022-09-16T19:50:55.279Z,8.90
2022-09-16T19:54:52.229Z,8.90
2022-09-16T19:58:50.603Z,8.80
2022-09-16T20:02:47.892Z,8.80
2022-09-16T20:06:45.253Z,8.80
2022-09-16T20:10:42.192Z,8.70
2022-09-16T20:14:39.250Z,8.70
2022-09-16T20:18:36.716Z,8.70
2022-09-16T20:22:33.663Z,8.60
2022-09-16T20:26:30.627Z,8.60
2022-09-16T20:30:27.630Z,8.70
2022-09-16T20:34:24.613Z,8.70
2022-09-16T20:38:21.871Z,8.70
2022-09-16T20:42:19.294Z,8.80
2022-09-16T20:46:29.099Z,8.80
2022-09-16T20:50:26.044Z,8.80
2022-09-16T20:54:23.012Z,8.70
2022-09-16T20:58:19.960Z,8.60
2022-09-16T21:02:17.038Z,8.50
2022-09-16T21:06:15.345Z,8.50
2022-09-16T21:10:13.349Z,8.40
2022-09-16T21:14:12.617Z,8.30
2022-09-16T21:18:09.751Z,8.20
2022-09-16T21:22:07.153Z,8.20
2022-09-16T21:26:14.014Z,8.20
2022-09-16T21:30:11.771Z,8.10
2022-09-16T21:34:17.061Z,8.00
2022-09-16T21:38:15.979Z,8.00
2022-09-16T21:42:12.979Z,8.00
2022-09-16T21:46:16.283Z,8.00
2022-09-16T21:50:13.445Z,8.10
2022-09-16T21:54:10.969Z,8.10
2022-09-16T21:58:09.370Z,8.10
2022-09-16T22:02:06.321Z,8.10
2022-09-16T22:06:05.426Z,8.30
2022-09-16T22:10:02.437Z,8.30
2022-09-16T22:14:00.850Z,8.40
2022-09-16T22:17:57.829Z,8.50
2022-09-16T22:21:54.814Z,8.60
2022-09-16T22:25:51.771Z,8.60
2022-09-16T22:29:48.706Z,8.60
2022-09-16T22:33:48.321Z,8.50
2022-09-16T22:37:45.428Z,8.40
2022-09-16T22:41:42.980Z,8.50
2022-09-16T22:45:39.956Z,8.60
2022-09-16T22:49:36.930Z,8.60
2022-09-16T22:53:34.477Z,8.50
2022-09-16T22:57:31.436Z,8.50
2022-09-16T23:01:33.007Z,8.60
2022-09-16T23:05:30.010Z,8.60
2022-09-16T23:09:26.941Z,8.70
2022-09-16T23:13:24.153Z,8.80
2022-09-16T23:17:23.376Z,8.80
2022-09-16T23:21:22.622Z,8.80
2022-09-16T23:25:19.588Z,8.80
2022-09-16T23:29:18.512Z,8.60
2022-09-16T23:33:15.496Z,8.50
2022-09-16T23:37:12.462Z,8.50
2022-09-16T23:41:17.051Z,8.50
2022-09-16T23:45:14.209Z,8.50
2022-09-16T23:49:12.029Z,8.40
2022-09-16T23:53:08.962Z,8.40
2022-09-16T23:57:06.837Z,8.30
